Links Sitemap Venhuizerweer voor mobiel

AMSTERDAM SCHIPHOL:
Amsterdam Airport Schiphol, Netherlands (EHAM) 52-18N 004-46E -2M
Sep 24, 2020 - 12:55 AM EDT / 2020.09.24 0455 UTC
Wind: from the WSW (250 degrees) at 16 MPH (14 KT) (direction variable):0
Visibility: greater than 7 mile(s):0
Sky conditions: mostly clear
Temperature: 55 F (13 C)
Dew Point: 46 F (8 C)
Relative Humidity: 71%
Pressure (altimeter): 29.50 in. Hg (0999 hPa)
ob: EHAM 240455Z 25014KT 220V280 9999 FEW030 13/08 Q0999 NOSIG
cycle: 5
DEELEN:
Deelen, Netherlands (EHDL) 52-04N 005-53E 52M
Sep 24, 2020 - 12:55 AM EDT / 2020.09.24 0455 UTC
Wind: from the SSW (210 degrees) at 14 MPH (12 KT) (direction variable):0
Visibility: greater than 7 mile(s):0
Sky conditions: mostly clear
Temperature: 51 F (11 C)
Dew Point: 48 F (9 C)
Relative Humidity: 87%
Pressure (altimeter): 29.56 in. Hg (1001 hPa)
ob: EHDL 240455Z AUTO 21012KT 160V260 9999 FEW029 11/09 Q1001 BLU
cycle: 5
DE KOOY:
De Kooy, Netherlands (EHKD) 52-55N 004-47E 14M
Sep 24, 2020 - 12:55 AM EDT / 2020.09.24 0455 UTC
Wind: from the WSW (250 degrees) at 23 MPH (20 KT):0
Visibility: greater than 7 mile(s):0
Sky conditions: mostly clear
Temperature: 55 F (13 C)
Dew Point: 46 F (8 C)
Relative Humidity: 71%
Pressure (altimeter): 29.44 in. Hg (0997 hPa)
ob: EHKD 240455Z AUTO 25020KT 9999 FEW029 13/08 Q0997 BLU NOSIG
cycle: 5
EELDE:
Groningen Airport Eelde, Netherlands (EHGG) 53-08N 006-35E 4M
Sep 24, 2020 - 12:55 AM EDT / 2020.09.24 0455 UTC
Wind: from the SSW (210 degrees) at 14 MPH (12 KT):0
Visibility: greater than 7 mile(s):0
Sky conditions: mostly cloudy
Temperature: 55 F (13 C)
Dew Point: 51 F (11 C)
Relative Humidity: 87%
Pressure (altimeter): 29.44 in. Hg (0997 hPa)
ob: EHGG 240455Z AUTO 21012KT 9999 SCT023 BKN026 BKN031 13/11 Q0997 NOSIG
cycle: 5
EINDHOVEN:
Eindhoven, Netherlands (EHEH) 51-27N 005-25E 28M
Sep 24, 2020 - 12:55 AM EDT / 2020.09.24 0455 UTC
Wind: from the SSW (200 degrees) at 10 MPH (9 KT):0
Visibility: greater than 7 mile(s):0
Temperature: 51 F (11 C)
Dew Point: 50 F (10 C)
Relative Humidity: 93%
Pressure (altimeter): 29.59 in. Hg (1002 hPa)
ob: EHEH 240455Z AUTO 20009KT 9999 NCD 11/10 Q1002 BLU NOSIG
cycle: 5
GILZE-RIJEN:
Gilze-Rijen, Netherlands (EHGR) 51-34N 004-56E 24M
Sep 24, 2020 - 12:55 AM EDT / 2020.09.24 0455 UTC
Wind: from the SW (220 degrees) at 9 MPH (8 KT) (direction variable):0
Visibility: greater than 7 mile(s):0
Temperature: 53 F (12 C)
Dew Point: 46 F (8 C)
Relative Humidity: 76%
Pressure (altimeter): 29.59 in. Hg (1002 hPa)
ob: EHGR 240455Z AUTO 22008KT 200V260 9999 NCD 12/08 Q1002 BLU
cycle: 5
LEEUWARDEN:
Leeuwarden, Netherlands (EHLW) 53-13N 005-46E 11M
Sep 24, 2020 - 12:55 AM EDT / 2020.09.24 0455 UTC
Wind: from the WSW (240 degrees) at 17 MPH (15 KT):0
Visibility: greater than 7 mile(s):0
Temperature: 55 F (13 C)
Dew Point: 48 F (9 C)
Relative Humidity: 76%
Pressure (altimeter): 29.44 in. Hg (0997 hPa)
ob: EHLW 240455Z AUTO 24015KT 9999 NCD 13/09 Q0997 BLU
cycle: 5
MAASTRICHT:
Maastricht Airport Zuid Limburg, Netherlands (EHBK) 50-55N 005-47E 116M
Sep 24, 2020 - 12:55 AM EDT / 2020.09.24 0455 UTC
Wind: from the SW (220 degrees) at 14 MPH (12 KT) (direction variable):0
Visibility: greater than 7 mile(s):0
Temperature: 51 F (11 C)
Dew Point: 48 F (9 C)
Relative Humidity: 87%
Pressure (altimeter): 29.65 in. Hg (1004 hPa)
ob: EHBK 240455Z AUTO 22012KT 190V250 9999 NCD 11/09 Q1004 NOSIG
cycle: 5
ROTTERDAM ZESTIENHOVEN:
Rotterdam Airport Zestienhoven, Netherlands (EHRD) 51-57N 004-27E -4M
Sep 24, 2020 - 12:55 AM EDT / 2020.09.24 0455 UTC
Wind: from the SW (230 degrees) at 12 MPH (10 KT) (direction variable):0
Visibility: greater than 7 mile(s):0
Sky conditions: mostly cloudy
Temperature: 55 F (13 C)
Dew Point: 48 F (9 C)
Relative Humidity: 76%
Pressure (altimeter): 29.53 in. Hg (1000 hPa)
ob: EHRD 240455Z AUTO 23010KT 200V260 9999 FEW023 BKN026 BKN034 13/09 Q1000 NOSIG
cycle: 5
SOESTERBERG:
Soesterberg, Netherlands (EHSB) 52-08N 005-17E 25M
Nov 20, 2008 - 04:25 AM EST / 2008.11.20 0925 UTC
Wind: from the W (280 degrees) at 16 MPH (14 KT):0
Visibility: greater than 7 mile(s):0
Temperature: 51 F (11 C)
Dew Point: 48 F (9 C)
Relative Humidity: 87%
Pressure (altimeter): 29.83 in. Hg (1010 hPa)
ob: EHSB 200925Z AUTO 28014KT 9999 // 11/09 Q1010
cycle: 9
TWENTE:
Twenthe, Netherlands (EHTW) 52-16N 006-54E 57M
Apr 07, 2008 - 08:25 AM EDT / 2008.04.07 1225 UTC
Wind: from the N (010 degrees) at 7 MPH (6 KT):0
Sky conditions: mostly cloudy
Temperature: 46 F (8 C)
Dew Point: 24 F (-4 C)
Relative Humidity: 42%
Pressure (altimeter): 29.59 in. Hg (1002 hPa)
ob: EHTW 071225Z AUTO 01006KT //// // BKN200/// 08/M04 Q1002 RE//
cycle: 12
VALKENBURG:
Valkenburg, Netherlands (EHVB) 52-11N 004-25E 2M
Apr 01, 2010 - 03:55 AM EDT / 2010.04.01 0755 UTC
Wind: from the WSW (250 degrees) at 20 MPH (17 KT):0
Sky conditions: mostly cloudy
Temperature: 41 F (5 C)
Dew Point: 33 F (1 C)
Relative Humidity: 75%
Pressure (altimeter): 29.62 in. Hg (1003 hPa)
ob: EHVB 010755Z AUTO 25017KT 9999NDV FEW021/// BKN037/// 05/01 Q1003 BLU
cycle: 8
VLIELAND:
Vlieland, Netherlands (EHVL) 53-15N 004-55E 12M
Sep 24, 2020 - 12:55 AM EDT / 2020.09.24 0455 UTC
Wind: from the WSW (250 degrees) at 31 MPH (27 KT):0
Visibility: greater than 7 mile(s):0
Sky conditions: mostly clear
Temperature: 57 F (14 C)
Dew Point: 46 F (8 C)
Relative Humidity: 67%
Pressure (altimeter): 29.41 in. Hg (0996 hPa)
ob: EHVL 240455Z AUTO 25027KT 9999 FEW030 14/08 Q0996 BLU
cycle: 5
VOLKEL:
Volkel, Netherlands (EHVK) 51-39N 005-42E 21M
Sep 24, 2020 - 12:55 AM EDT / 2020.09.24 0455 UTC
Wind: from the SSW (210 degrees) at 13 MPH (11 KT):0
Visibility: greater than 7 mile(s):0
Temperature: 51 F (11 C)
Dew Point: 48 F (9 C)
Relative Humidity: 87%
Pressure (altimeter): 29.59 in. Hg (1002 hPa)
ob: EHVK 240455Z AUTO 21011KT 9999 NCD 11/09 Q1002 BLU
cycle: 5
WOENSDRECHT:
Woensdrecht, Netherlands (EHWO) 51-27N 004-20E 17M
Sep 24, 2020 - 12:55 AM EDT / 2020.09.24 0455 UTC
Wind: from the SW (230 degrees) at 9 MPH (8 KT) (direction variable):0
Visibility: greater than 7 mile(s):0
Temperature: 51 F (11 C)
Dew Point: 46 F (8 C)
Relative Humidity: 81%
Pressure (altimeter): 29.56 in. Hg (1001 hPa)
ob: EHWO 240455Z AUTO 23008KT 190V260 9999 NCD 11/08 Q1001 BLU
cycle: 5
Copyright © 2005 - 2020 Venhuizerweer - Alle Rechten Voorbehouden


34.205.93.2